Time;durP1;ratioP1;P1;durP2;ratioP2;P2;SDS_P1;SDS_P2;PMS_P1;PMS_P2;Temp;Humidity;BMP_temperature;BMP_pressure;BME280_temperature;BME280_humidity;BME280_pressure;Samples;Min_cycle;Max_cycle;Signal;HPM_P1;HPM_P2
2022/06/23 00:02:45;;;;;;;3.80;3.50;;;15.90;99.90;;;;;;5020017;28;20588;-68
2022/06/23 00:05:53;;;;;;;3.33;3.10;;;15.90;99.90;;;;;;5022155;28;20985;-68
2022/06/23 00:08:47;;;;;;;3.80;3.50;;;15.70;99.90;;;;;;5022648;28;21706;-68
2022/06/23 00:15:31;;;;;;;4.27;3.87;;;15.70;99.90;;;;;;5025315;28;20542;-68
2022/06/23 00:18:24;;;;;;;4.37;4.07;;;15.70;99.90;;;;;;5027265;28;20798;-68
2022/06/23 00:21:33;;;;;;;4.77;4.17;;;15.60;99.90;;;;;;5026203;28;20558;-68
2022/06/23 00:24:27;;;;;;;3.73;3.50;;;15.70;99.90;;;;;;5023159;28;20550;-68
2022/06/23 00:27:30;;;;;;;4.13;3.63;;;15.50;99.90;;;;;;5024953;28;20535;-68
2022/06/23 00:30:36;;;;;;;4.50;4.20;;;15.50;99.90;;;;;;5023555;28;20886;-68
2022/06/23 00:33:44;;;;;;;4.10;3.80;;;15.50;99.90;;;;;;5025361;28;20481;-68
2022/06/23 00:44:09;;;;;;;4.40;4.10;;;15.40;99.90;;;;;;4976474;28;20543;-68
2022/06/23 00:47:06;;;;;;;4.30;3.90;;;15.40;99.90;;;;;;5024578;28;20524;-68
2022/06/23 00:50:02;;;;;;;4.60;4.30;;;15.40;99.90;;;;;;5024876;28;20451;-68
2022/06/23 00:53:18;;;;;;;4.63;4.27;;;15.30;99.90;;;;;;5021394;28;20466;-68
2022/06/23 00:56:45;;;;;;;4.83;4.10;;;15.20;99.90;;;;;;5017699;28;20549;-68
2022/06/23 00:59:49;;;;;;;3.97;3.67;;;15.10;99.90;;;;;;5021211;28;20472;-68
2022/06/23 01:02:50;;;;;;;4.53;4.20;;;15.20;99.90;;;;;;5022456;28;20494;-69
2022/06/23 01:05:50;;;;;;;4.50;4.20;;;15.20;99.90;;;;;;5028981;28;20542;-68
2022/06/23 01:08:55;;;;;;;4.57;4.27;;;15.20;99.90;;;;;;5031211;28;20450;-68
2022/06/23 01:12:02;;;;;;;5.10;4.70;;;15.10;99.90;;;;;;5030894;28;20462;-68
2022/06/23 01:15:03;;;;;;;4.50;4.10;;;15.10;99.90;;;;;;5022817;28;20648;-68
2022/06/23 01:18:20;;;;;;;5.10;4.70;;;15.10;99.90;;;;;;5014814;28;20463;-68
2022/06/23 01:21:46;;;;;;;4.40;4.10;;;15.10;99.90;;;;;;5019399;28;20459;-68
2022/06/23 01:24:57;;;;;;;5.10;4.70;;;15.00;99.90;;;;;;5022037;28;20475;-69
2022/06/23 01:28:17;;;;;;;6.20;4.87;;;14.90;99.90;;;;;;5023136;28;20458;-68
2022/06/23 01:35:07;;;;;;;;;;;;;;;;;;;;;
2022/06/23 01:38:07;;;;;;;5.10;4.70;;;14.80;99.90;;;;;;5022753;28;20931;-68
2022/06/23 01:41:23;;;;;;;5.37;4.87;;;14.80;99.90;;;;;;5022300;28;20494;-68
2022/06/23 01:44:47;;;;;;;4.97;4.60;;;14.80;99.90;;;;;;5023495;28;20483;-68
2022/06/23 01:47:40;;;;;;;5.97;4.90;;;14.80;99.90;;;;;;5023660;28;20907;-68
2022/06/23 01:50:41;;;;;;;5.80;5.37;;;14.70;99.90;;;;;;5024990;28;20542;-68
2022/06/23 01:53:33;;;;;;;5.43;5.03;;;14.70;99.90;;;;;;5023899;28;21110;-68
2022/06/23 01:56:55;;;;;;;5.00;4.70;;;14.70;99.90;;;;;;5019595;28;20458;-68
2022/06/23 02:00:11;;;;;;;5.90;5.40;;;14.70;99.90;;;;;;5022536;28;20452;-68
2022/06/23 02:03:24;;;;;;;5.20;4.80;;;14.60;99.90;;;;;;5022617;28;20897;-68
2022/06/23 02:06:30;;;;;;;5.63;5.23;;;14.50;99.90;;;;;;5019755;28;20830;-68
2022/06/23 02:09:44;;;;;;;5.67;5.17;;;14.50;99.90;;;;;;5024299;28;20970;-68
2022/06/23 02:12:54;;;;;;;6.07;5.57;;;14.50;99.90;;;;;;5021971;28;20940;-68
2022/06/23 02:16:12;;;;;;;5.70;5.20;;;14.50;99.90;;;;;;5020609;28;20955;-68
2022/06/23 02:19:20;;;;;;;6.00;5.50;;;14.50;99.90;;;;;;5022339;28;20464;-68
2022/06/23 02:22:28;;;;;;;5.50;5.00;;;14.50;99.90;;;;;;5021485;28;20517;-68
2022/06/23 02:25:22;;;;;;;6.70;6.20;;;14.40;99.90;;;;;;5020116;28;20479;-70
2022/06/23 02:28:50;;;;;;;6.60;5.90;;;14.30;99.90;;;;;;5021397;28;20832;-68
2022/06/23 02:32:15;;;;;;;6.17;5.73;;;14.40;99.90;;;;;;5024037;28;20526;-69
2022/06/23 02:35:27;;;;;;;6.20;5.70;;;14.30;99.90;;;;;;5044019;28;20480;-68
2022/06/23 02:38:34;;;;;;;6.20;5.80;;;14.30;99.90;;;;;;5041540;28;20447;-68
2022/06/23 02:41:56;;;;;;;7.40;6.70;;;14.30;99.90;;;;;;5022856;28;20545;-68
2022/06/23 02:45:07;;;;;;;7.00;6.50;;;14.30;99.90;;;;;;5020064;28;20479;-68
2022/06/23 02:48:32;;;;;;;;;;;;;;;;;;;;;
2022/06/23 02:51:56;;;;;;;6.17;5.67;;;14.20;99.90;;;;;;5025987;28;20467;-68
2022/06/23 02:55:48;;;;;;;6.67;6.17;;;14.20;99.90;;;;;;5011484;28;20482;-68
2022/06/23 03:02:28;;;;;;;6.50;5.90;;;14.10;99.90;;;;;;5022014;28;20459;-71
2022/06/23 03:05:42;;;;;;;6.20;5.70;;;14.10;99.90;;;;;;5020904;28;20494;-68
2022/06/23 03:08:42;;;;;;;6.03;5.53;;;14.10;99.90;;;;;;5017769;28;20533;-68
2022/06/23 03:11:54;;;;;;;6.80;6.30;;;14.10;99.90;;;;;;5021042;28;20547;-68
2022/06/23 03:14:57;;;;;;;6.50;5.93;;;14.10;99.90;;;;;;5018123;28;20865;-68
2022/06/23 03:18:08;;;;;;;6.87;6.30;;;14.10;99.90;;;;;;5021697;28;20557;-68
2022/06/23 03:21:28;;;;;;;;;;;;;;;;;;;;;
2022/06/23 03:24:51;;;;;;;7.33;6.73;;;14.10;99.90;;;;;;4994526;28;20944;-68
2022/06/23 03:27:50;;;;;;;7.00;6.40;;;14.20;99.90;;;;;;5021168;28;20463;-68
2022/06/23 03:31:17;;;;;;;6.70;6.20;;;14.20;99.90;;;;;;5017432;28;20459;-68
2022/06/23 03:34:24;;;;;;;7.40;6.70;;;14.20;99.90;;;;;;5002865;28;20475;-68
2022/06/23 03:37:48;;;;;;;7.97;7.30;;;14.30;99.90;;;;;;5017787;28;20543;-68
2022/06/23 03:44:27;;;;;;;9.73;8.00;;;14.40;99.90;;;;;;5022701;28;21023;-70
2022/06/23 03:47:54;;;;;;;8.67;7.97;;;14.50;99.90;;;;;;5024519;28;20451;-68
2022/06/23 03:51:09;;;;;;;9.27;8.20;;;14.60;99.90;;;;;;5026622;28;20540;-68
2022/06/23 03:54:08;;;;;;;8.40;7.20;;;14.60;99.90;;;;;;5032583;28;20497;-68
2022/06/23 04:00:30;;;;;;;8.50;7.80;;;14.70;99.90;;;;;;5034194;28;20468;-68
2022/06/23 04:03:34;;;;;;;8.30;7.43;;;14.70;99.90;;;;;;5021846;28;20479;-68
2022/06/23 04:06:36;;;;;;;7.70;6.97;;;14.70;99.90;;;;;;5025765;28;20546;-68
2022/06/23 04:09:33;;;;;;;8.67;7.80;;;14.70;99.90;;;;;;5024661;28;20475;-68
2022/06/23 04:12:49;;;;;;;8.33;7.53;;;14.80;99.90;;;;;;5024863;28;20462;-68
2022/06/23 04:16:13;;;;;;;8.47;7.67;;;14.80;99.90;;;;;;5023205;28;20483;-68
2022/06/23 04:19:22;;;;;;;8.73;7.90;;;14.90;99.90;;;;;;5023566;28;20998;-68
2022/06/23 04:22:15;;;;;;;7.70;7.10;;;14.90;99.90;;;;;;5021465;28;20591;-68
2022/06/23 04:25:32;;;;;;;8.30;7.57;;;14.90;99.90;;;;;;5022964;28;20649;-68
2022/06/23 04:28:29;;;;;;;8.53;7.57;;;14.90;99.90;;;;;;5022545;28;20479;-68
2022/06/23 04:31:34;;;;;;;8.30;7.47;;;15.00;99.90;;;;;;5021758;28;20451;-68
2022/06/23 04:34:41;;;;;;;8.43;7.73;;;15.10;99.90;;;;;;5022542;28;20476;-68
2022/06/23 04:37:39;;;;;;;8.90;8.10;;;15.10;99.90;;;;;;5017021;28;20725;-68
2022/06/23 04:40:54;;;;;;;8.17;7.47;;;15.20;99.90;;;;;;5014503;28;20569;-69
2022/06/23 04:43:59;;;;;;;8.53;7.73;;;15.20;99.90;;;;;;5020560;28;20487;-68
2022/06/23 04:47:02;;;;;;;9.63;8.27;;;15.30;99.90;;;;;;5014406;28;22321;-68
2022/06/23 04:50:00;;;;;;;9.33;8.43;;;15.30;99.90;;;;;;5031451;28;20466;-69
2022/06/23 04:53:05;;;;;;;9.10;8.20;;;15.40;99.90;;;;;;5029909;28;21281;-68
2022/06/23 04:59:52;;;;;;;10.70;8.30;;;15.40;99.90;;;;;;5000840;28;20508;-68
2022/06/23 05:02:57;;;;;;;8.50;6.60;;;15.50;99.90;;;;;;5014546;28;20530;-67
2022/06/23 05:06:10;;;;;;;6.73;6.13;;;15.60;99.90;;;;;;5017681;28;20914;-67
2022/06/23 05:09:21;;;;;;;7.00;6.33;;;15.60;99.90;;;;;;5018884;28;20459;-67
2022/06/23 05:12:22;;;;;;;7.27;6.63;;;15.70;99.90;;;;;;5021166;28;20934;-67
2022/06/23 05:15:17;;;;;;;6.70;5.83;;;15.80;99.90;;;;;;5017239;28;20854;-67
2022/06/23 05:18:23;;;;;;;;;;;;;;;;;;;;;
2022/06/23 05:24:45;;;;;;;5.60;5.10;;;16.00;99.90;;;;;;5018108;28;20831;-68
2022/06/23 05:27:38;;;;;;;5.37;4.87;;;16.00;99.90;;;;;;5014515;28;20468;-69
2022/06/23 05:30:46;;;;;;;5.43;4.93;;;16.10;99.90;;;;;;5020738;28;21029;-68
2022/06/23 05:33:58;;;;;;;8.27;5.03;;;16.10;99.90;;;;;;5021478;28;20971;-69
2022/06/23 05:36:52;;;;;;;5.57;4.90;;;16.20;99.90;;;;;;5019763;28;20971;-69
2022/06/23 05:39:46;;;;;;;4.40;4.00;;;16.30;99.90;;;;;;5022632;28;20546;-69
2022/06/23 05:43:02;;;;;;;5.93;4.83;;;16.30;99.90;;;;;;5019271;28;20511;-69
2022/06/23 05:45:54;;;;;;;6.10;5.50;;;16.40;99.90;;;;;;5020458;28;20670;-69
2022/06/23 05:49:11;;;;;;;5.87;5.40;;;16.40;99.90;;;;;;5018135;28;20460;-67
2022/06/23 05:55:36;;;;;;;5.73;5.23;;;16.60;99.90;;;;;;5018457;28;20517;-68
2022/06/23 05:58:40;;;;;;;6.00;5.40;;;16.70;99.90;;;;;;5021427;28;20547;-68
2022/06/23 06:01:37;;;;;;;7.77;5.87;;;16.70;99.90;;;;;;5020626;28;20457;-68
2022/06/23 06:04:30;;;;;;;8.13;7.13;;;16.80;99.90;;;;;;5001010;28;20547;-68
2022/06/23 06:07:32;;;;;;;5.73;5.07;;;16.80;99.90;;;;;;5012272;28;20452;-67
2022/06/23 06:10:28;;;;;;;6.60;5.67;;;16.90;99.90;;;;;;5021854;28;20447;-68
2022/06/23 06:13:20;;;;;;;6.07;5.50;;;17.00;99.90;;;;;;5017363;28;20963;-68
2022/06/23 06:16:13;;;;;;;5.40;5.00;;;17.00;99.90;;;;;;5011610;28;20624;-69
2022/06/23 06:19:04;;;;;;;6.77;5.83;;;17.10;99.90;;;;;;5021202;28;20513;-70
2022/06/23 06:21:56;;;;;;;5.60;5.13;;;17.20;99.90;;;;;;5023808;28;20538;-69
2022/06/23 06:24:52;;;;;;;7.03;4.93;;;17.30;99.90;;;;;;5018519;28;20593;-68
2022/06/23 06:27:43;;;;;;;6.30;5.00;;;17.40;99.90;;;;;;5012717;28;20474;-68
2022/06/23 06:30:39;;;;;;;5.43;4.97;;;17.40;99.90;;;;;;5024346;28;20835;-68
2022/06/23 06:33:43;;;;;;;6.47;5.70;;;17.50;99.90;;;;;;5021904;28;20546;-68
2022/06/23 06:36:34;;;;;;;5.67;5.17;;;17.60;99.90;;;;;;5023751;28;20597;-68
2022/06/23 06:39:26;;;;;;;6.17;5.63;;;17.60;99.90;;;;;;5022090;28;20538;-68
2022/06/23 06:42:17;;;;;;;6.57;5.37;;;17.70;99.90;;;;;;5022937;28;20499;-67
2022/06/23 06:45:11;;;;;;;5.63;5.13;;;17.80;99.90;;;;;;5022969;28;20489;-68
2022/06/23 06:48:02;;;;;;;5.73;5.33;;;17.80;99.90;;;;;;5029715;28;20514;-68
2022/06/23 06:50:56;;;;;;;5.83;5.33;;;17.90;99.90;;;;;;5038055;28;20506;-68
2022/06/23 06:53:48;;;;;;;5.80;5.20;;;17.90;99.90;;;;;;5036130;28;20491;-68
2022/06/23 06:56:41;;;;;;;6.00;5.40;;;18.00;99.90;;;;;;5035698;28;20455;-68
2022/06/23 06:59:38;;;;;;;5.97;4.70;;;18.00;99.90;;;;;;5035569;28;20566;-68
2022/06/23 07:02:33;;;;;;;5.30;4.90;;;18.20;99.90;;;;;;5040187;28;20505;-73
2022/06/23 07:05:27;;;;;;;5.30;4.80;;;18.30;99.90;;;;;;5039177;28;20487;-68
2022/06/23 07:08:24;;;;;;;6.37;5.83;;;18.30;99.90;;;;;;5043546;28;20461;-67
2022/06/23 07:11:18;;;;;;;5.30;4.90;;;18.40;99.90;;;;;;5034880;28;20475;-71
2022/06/23 07:14:15;;;;;;;6.00;5.37;;;18.50;99.90;;;;;;5035360;28;20711;-68
2022/06/23 07:17:11;;;;;;;6.27;5.47;;;18.60;99.90;;;;;;5038270;28;21120;-69
2022/06/23 07:20:04;;;;;;;5.33;4.87;;;18.70;99.90;;;;;;5040742;28;20448;-69
2022/06/23 07:22:59;;;;;;;4.63;4.23;;;18.80;99.90;;;;;;5027389;28;20460;-69
2022/06/23 07:25:53;;;;;;;4.73;4.33;;;18.90;99.90;;;;;;5021062;28;20574;-69
2022/06/23 07:28:49;;;;;;;4.97;4.57;;;18.90;99.90;;;;;;5018793;28;20477;-69
2022/06/23 07:31:46;;;;;;;5.83;5.20;;;19.00;99.90;;;;;;5015348;28;20529;-69
2022/06/23 07:34:39;;;;;;;5.20;4.80;;;19.10;99.90;;;;;;5020374;28;20486;-69
2022/06/23 07:37:32;;;;;;;5.13;4.63;;;19.20;99.90;;;;;;5031294;28;20467;-69
2022/06/23 07:40:24;;;;;;;5.93;5.43;;;19.30;99.90;;;;;;5032255;28;20474;-69
2022/06/23 07:43:21;;;;;;;5.10;4.70;;;19.40;99.90;;;;;;5034070;28;20487;-69
2022/06/23 07:46:10;;;;;;;7.07;5.57;;;19.40;99.90;;;;;;5023346;28;22402;-69
2022/06/23 07:48:58;;;;;;;5.83;4.97;;;19.50;99.90;;;;;;5017892;28;20555;-69
2022/06/23 07:51:48;;;;;;;5.00;4.47;;;19.60;99.90;;;;;;5017507;28;20570;-69
2022/06/23 07:54:38;;;;;;;5.53;4.57;;;19.70;99.90;;;;;;5020361;28;20479;-68
2022/06/23 07:57:33;;;;;;;4.90;4.50;;;19.70;99.90;;;;;;5020549;28;20463;-69
2022/06/23 08:00:25;;;;;;;6.00;4.70;;;19.80;99.90;;;;;;5018763;28;20439;-69
2022/06/23 08:03:19;;;;;;;5.90;5.40;;;19.90;99.90;;;;;;5021178;28;20489;-69
2022/06/23 08:06:13;;;;;;;5.57;4.43;;;20.00;99.90;;;;;;5021334;28;20475;-69
2022/06/23 08:09:05;;;;;;;4.80;4.40;;;20.20;99.90;;;;;;5012682;28;21106;-69
2022/06/23 08:18:31;;;;;;;5.70;4.90;;;20.50;99.90;;;;;;4955626;28;20615;-69
2022/06/23 08:21:23;;;;;;;5.30;4.80;;;20.50;99.90;;;;;;5023011;28;20501;-69
2022/06/23 08:24:15;;;;;;;6.03;4.93;;;20.60;99.90;;;;;;5020111;28;20829;-75
2022/06/23 08:27:09;;;;;;;4.97;4.47;;;20.70;99.90;;;;;;5015456;28;20482;-69
2022/06/23 08:30:03;;;;;;;5.53;4.93;;;20.90;99.90;;;;;;5021720;28;20644;-70
2022/06/23 08:32:53;;;;;;;5.43;4.93;;;21.00;99.90;;;;;;5037356;28;20483;-69
2022/06/23 08:35:45;;;;;;;5.20;4.80;;;21.10;99.90;;;;;;5033519;28;20541;-69
2022/06/23 08:38:37;;;;;;;5.17;4.67;;;21.10;99.90;;;;;;5034561;28;20463;-68
2022/06/23 08:41:36;;;;;;;5.90;5.30;;;21.20;99.90;;;;;;5025958;28;21012;-69
2022/06/23 08:44:56;;;;;;;5.60;4.97;;;21.30;99.90;;;;;;5024181;28;20479;-69
2022/06/23 08:47:50;;;;;;;6.87;4.80;;;21.40;99.90;;;;;;5026015;28;20933;-69
2022/06/23 08:50:44;;;;;;;5.67;5.27;;;21.60;99.90;;;;;;5016500;28;20614;-69
2022/06/23 08:53:39;;;;;;;5.93;5.33;;;21.60;99.90;;;;;;5024007;28;20543;-68
2022/06/23 08:56:31;;;;;;;5.37;4.87;;;21.70;99.90;;;;;;5024957;28;20534;-69
2022/06/23 08:59:26;;;;;;;5.43;4.93;;;21.80;99.90;;;;;;5015965;28;20444;-68
2022/06/23 09:02:21;;;;;;;4.73;4.33;;;21.90;99.90;;;;;;5018128;28;20479;-68
2022/06/23 09:05:37;;;;;;;5.60;4.97;;;22.00;99.90;;;;;;5021730;28;20477;-69
2022/06/23 09:08:35;;;;;;;6.40;4.60;;;22.10;99.90;;;;;;5022467;28;20492;-70
2022/06/23 09:11:57;;;;;;;5.47;4.83;;;22.30;99.90;;;;;;5025494;28;20455;-69
2022/06/23 09:15:23;;;;;;;5.10;4.70;;;22.30;99.90;;;;;;5023925;28;20894;-69
2022/06/23 09:18:37;;;;;;;4.50;4.10;;;22.50;99.90;;;;;;5020362;28;20531;-69
2022/06/23 09:21:39;;;;;;;5.00;4.60;;;22.50;99.90;;;;;;5021319;28;20452;-69
2022/06/23 09:24:45;;;;;;;5.30;4.87;;;22.60;99.90;;;;;;5026672;28;20557;-68
2022/06/23 09:27:55;;;;;;;5.07;4.57;;;22.70;99.90;;;;;;5019347;28;20479;-67
2022/06/23 09:31:06;;;;;;;5.00;4.60;;;22.80;99.90;;;;;;5019685;28;20459;-67
2022/06/23 09:34:08;;;;;;;4.33;3.93;;;22.90;99.90;;;;;;5006082;28;20758;-67
2022/06/23 09:37:16;;;;;;;5.70;4.20;;;23.00;99.90;;;;;;5014370;28;20459;-66
2022/06/23 09:40:26;;;;;;;4.70;4.40;;;23.00;99.90;;;;;;5020375;28;20455;-67
2022/06/23 09:43:51;;;;;;;4.57;4.13;;;23.20;99.90;;;;;;5013621;28;20505;-67
2022/06/23 09:46:59;;;;;;;4.50;4.00;;;23.30;99.90;;;;;;5014534;28;20594;-67
2022/06/23 09:49:59;;;;;;;4.57;4.27;;;23.30;99.90;;;;;;5019520;28;20455;-67
2022/06/23 09:53:18;;;;;;;5.20;4.80;;;23.40;99.90;;;;;;5017456;28;20462;-67
2022/06/23 09:56:24;;;;;;;5.73;4.70;;;23.50;99.90;;;;;;4993933;28;20561;-68
2022/06/23 09:59:57;;;;;;;5.97;4.27;;;23.60;99.90;;;;;;5015689;28;20630;-67
2022/06/23 10:03:04;;;;;;;4.57;4.13;;;23.70;99.90;;;;;;5013737;28;20502;-67
2022/06/23 10:06:11;;;;;;;5.73;4.43;;;23.80;99.90;;;;;;5010636;28;20867;-67
2022/06/23 10:09:08;;;;;;;5.27;4.77;;;23.80;99.90;;;;;;5017302;28;20547;-67
2022/06/23 10:12:08;;;;;;;36.87;21.43;;;23.90;99.90;;;;;;5019164;28;20475;-69
2022/06/23 10:15:17;;;;;;;6.40;5.90;;;24.00;99.90;;;;;;5017363;28;20479;-71
2022/06/23 10:18:30;;;;;;;5.93;5.10;;;24.00;99.90;;;;;;5013706;28;20463;-68
2022/06/23 10:21:33;;;;;;;9.43;7.67;;;24.10;99.90;;;;;;5010971;28;20592;-70
2022/06/23 10:24:34;;;;;;;8.80;7.00;;;24.20;99.90;;;;;;5017457;28;20607;-69
2022/06/23 10:27:57;;;;;;;5.27;4.87;;;24.30;99.90;;;;;;5021556;28;20617;-68
2022/06/23 10:30:56;;;;;;;5.07;4.67;;;24.40;99.90;;;;;;5017680;28;20542;-69
2022/06/23 10:34:14;;;;;;;4.90;4.50;;;24.50;99.90;;;;;;5019839;28;20553;-68
2022/06/23 10:37:23;;;;;;;4.53;4.10;;;24.60;99.90;;;;;;5016780;28;20566;-69
2022/06/23 10:40:45;;;;;;;5.47;4.10;;;24.70;99.90;;;;;;5013016;28;20501;-69
2022/06/23 10:43:59;;;;;;;3.77;3.47;;;24.80;99.90;;;;;;5017386;28;20922;-69
2022/06/23 10:46:57;;;;;;;4.67;4.37;;;24.80;99.90;;;;;;5013857;28;20562;-69
2022/06/23 10:50:26;;;;;;;4.43;4.03;;;24.80;99.90;;;;;;5019678;28;20461;-70
2022/06/23 10:54:04;;;;;;;7.17;4.60;;;24.90;99.90;;;;;;5015810;28;20443;-70
2022/06/23 10:57:08;;;;;;;4.10;3.60;;;25.10;99.90;;;;;;5017768;28;20590;-69
2022/06/23 11:00:08;;;;;;;7.07;3.57;;;25.20;99.90;;;;;;5019755;28;20474;-69
2022/06/23 11:03:25;;;;;;;4.20;3.90;;;25.20;99.90;;;;;;5002906;28;20495;-69
2022/06/23 11:06:53;;;;;;;7.70;4.47;;;25.30;99.90;;;;;;5013539;28;20488;-70
2022/06/23 11:09:54;;;;;;;3.97;3.67;;;25.40;99.90;;;;;;5018864;28;20510;-69
2022/06/23 11:12:57;;;;;;;4.37;3.90;;;25.50;99.90;;;;;;5011929;28;20462;-70
2022/06/23 11:15:52;;;;;;;6.60;6.10;;;25.50;99.90;;;;;;5007519;28;20600;-69
2022/06/23 11:18:56;;;;;;;4.10;3.80;;;25.60;99.90;;;;;;5000233;28;20460;-68
2022/06/23 11:22:25;;;;;;;3.97;3.67;;;25.70;99.90;;;;;;5013750;28;21026;-68
2022/06/23 11:25:26;;;;;;;4.40;4.00;;;25.80;99.90;;;;;;5003845;28;20471;-68
2022/06/23 11:28:30;;;;;;;4.60;4.30;;;25.90;99.90;;;;;;5012176;28;20681;-68
2022/06/23 11:31:35;;;;;;;4.50;4.10;;;26.10;99.90;;;;;;5015915;28;20467;-69
2022/06/23 11:34:51;;;;;;;4.43;4.03;;;26.20;99.90;;;;;;5018000;28;20821;-68
2022/06/23 11:38:06;;;;;;;4.70;4.30;;;26.30;99.90;;;;;;5019803;28;20463;-69
2022/06/23 11:41:06;;;;;;;3.90;3.60;;;26.30;99.90;;;;;;5016832;28;20530;-68
2022/06/23 11:44:12;;;;;;;4.47;4.07;;;26.40;99.90;;;;;;5013560;28;20987;-68
2022/06/23 11:47:13;;;;;;;4.63;4.30;;;26.40;99.90;;;;;;5022503;28;20590;-68
2022/06/23 11:50:17;;;;;;;4.47;4.17;;;26.40;99.90;;;;;;5019166;28;20465;-67
2022/06/23 11:53:32;;;;;;;4.10;3.70;;;26.60;99.90;;;;;;5014143;28;20949;-67
2022/06/23 11:56:33;;;;;;;4.63;4.20;;;26.70;99.90;;;;;;5020616;28;20551;-68
2022/06/23 11:59:32;;;;;;;4.10;3.80;;;26.90;99.90;;;;;;5020596;28;20454;-68
2022/06/23 12:02:58;;;;;;;3.90;3.60;;;27.00;99.90;;;;;;5014126;28;20566;-68
2022/06/23 12:06:01;;;;;;;4.07;3.57;;;27.20;99.90;;;;;;5020483;28;20556;-68
2022/06/23 12:09:01;;;;;;;3.57;3.37;;;27.30;99.90;;;;;;5014844;28;23854;-67
2022/06/23 12:11:52;;;;;;;3.80;3.50;;;27.40;99.90;;;;;;5023042;28;20459;-68
2022/06/23 12:14:41;;;;;;;3.57;3.37;;;27.50;99.90;;;;;;5020339;28;20716;-68
2022/06/23 12:17:36;;;;;;;5.60;3.53;;;27.60;99.90;;;;;;5021789;28;20998;-67
2022/06/23 12:20:31;;;;;;;5.93;3.57;;;27.70;99.90;;;;;;5023079;28;21044;-67
2022/06/23 12:23:28;;;;;;;4.37;3.97;;;27.80;99.90;;;;;;5023390;28;20471;-68
2022/06/23 12:26:21;;;;;;;3.87;3.53;;;27.90;99.90;;;;;;5024865;28;20471;-67
2022/06/23 12:29:19;;;;;;;4.07;3.77;;;28.00;99.90;;;;;;5022097;28;20468;-68
2022/06/23 12:32:13;;;;;;;5.70;3.80;;;28.00;99.90;;;;;;5024371;28;20849;-67
2022/06/23 12:35:07;;;;;;;4.10;3.80;;;28.10;99.90;;;;;;5024033;28;20494;-68
2022/06/23 12:38:02;;;;;;;4.87;3.50;;;28.20;99.90;;;;;;5025310;28;20923;-68
2022/06/23 12:40:58;;;;;;;3.60;3.30;;;28.20;99.90;;;;;;5015263;28;20470;-68
2022/06/23 12:43:51;;;;;;;3.97;3.67;;;28.30;99.90;;;;;;5020580;28;20888;-68
2022/06/23 12:46:48;;;;;;;3.77;3.47;;;28.40;99.90;;;;;;5024238;28;20955;-68
2022/06/23 12:49:52;;;;;;;4.30;3.90;;;28.50;99.90;;;;;;5017731;28;20931;-68
2022/06/23 12:52:52;;;;;;;4.27;3.87;;;28.60;99.90;;;;;;5025152;28;20459;-68
2022/06/23 12:55:55;;;;;;;4.13;3.77;;;28.70;99.90;;;;;;5022899;28;20496;-68
2022/06/23 12:58:50;;;;;;;4.70;3.80;;;28.90;99.90;;;;;;5022331;28;20451;-67
2022/06/23 13:01:43;;;;;;;3.90;3.60;;;29.00;99.90;;;;;;5009161;28;20947;-67
2022/06/23 13:04:47;;;;;;;3.57;3.37;;;29.10;99.90;;;;;;5011087;28;20606;-67
2022/06/23 13:07:44;;;;;;;4.13;3.90;;;29.20;99.90;;;;;;5015763;28;20508;-68
2022/06/23 13:10:37;;;;;;;3.70;3.50;;;29.40;99.90;;;;;;5017168;28;20462;-68
2022/06/23 13:13:33;;;;;;;4.10;3.80;;;29.40;99.90;;;;;;5022410;28;20455;-70
2022/06/23 13:16:30;;;;;;;4.23;4.03;;;;;;;;;;5010485;28;20472;-67
2022/06/23 13:19:27;;;;;;;4.73;4.33;;;29.50;99.90;;;;;;5022858;28;20440;-67
2022/06/23 13:22:46;;;;;;;6.73;5.03;;;29.70;99.90;;;;;;5022792;28;20455;-67
2022/06/23 13:25:44;;;;;;;4.53;4.23;;;29.80;99.90;;;;;;5017843;28;21003;-67
2022/06/23 13:28:35;;;;;;;5.10;4.63;;;29.90;99.90;;;;;;5019968;28;20550;-67
2022/06/23 13:31:29;;;;;;;3.93;3.63;;;30.00;99.90;;;;;;5022322;28;20549;-67
2022/06/23 13:34:27;;;;;;;4.60;4.20;;;30.00;99.90;;;;;;5020697;28;20485;-67
2022/06/23 13:37:19;;;;;;;4.50;4.20;;;30.10;99.90;;;;;;5022467;28;20681;-67
2022/06/23 13:40:21;;;;;;;4.37;4.07;;;30.20;99.90;;;;;;5015601;28;20456;-67
2022/06/23 13:43:16;;;;;;;4.87;4.47;;;30.30;99.90;;;;;;5015349;28;20451;-67
2022/06/23 13:46:16;;;;;;;4.30;4.00;;;30.30;99.90;;;;;;5020549;28;20846;-67
2022/06/23 13:49:19;;;;;;;4.03;3.73;;;30.40;99.90;;;;;;5015579;28;20930;-67
2022/06/23 13:52:16;;;;;;;5.20;4.80;;;30.50;98.00;;;;;;5022845;28;20478;-67
2022/06/23 13:55:12;;;;;;;4.33;3.93;;;30.40;99.80;;;;;;5021324;28;20572;-67
2022/06/23 13:58:06;;;;;;;4.20;3.90;;;30.50;99.90;;;;;;5019430;28;20562;-67
2022/06/23 14:01:01;;;;;;;4.07;3.77;;;30.60;99.90;;;;;;5018666;28;20692;-67
2022/06/23 14:03:54;;;;;;;4.00;3.70;;;30.70;99.90;;;;;;5013750;28;20532;-67
2022/06/23 14:06:53;;;;;;;4.33;4.03;;;30.80;97.10;;;;;;5019964;28;20459;-66
2022/06/23 14:09:48;;;;;;;4.40;4.10;;;30.80;98.60;;;;;;5017170;28;20463;-68
2022/06/23 14:12:40;;;;;;;5.27;4.77;;;30.80;98.60;;;;;;5019775;28;20493;-68
2022/06/23 14:15:38;;;;;;;4.20;3.90;;;30.90;98.20;;;;;;5015558;28;21021;-69
2022/06/23 14:18:37;;;;;;;5.30;4.87;;;31.00;96.30;;;;;;5014700;28;20443;-69
2022/06/23 14:21:30;;;;;;;4.00;3.60;;;31.00;98.60;;;;;;5018788;28;20468;-69
2022/06/23 14:24:25;;;;;;;4.53;4.23;;;31.10;97.40;;;;;;5016131;28;20491;-66
2022/06/23 14:27:22;;;;;;;4.80;4.30;;;31.10;96.60;;;;;;5020660;28;20448;-66
2022/06/23 14:30:19;;;;;;;4.10;3.80;;;31.20;96.10;;;;;;5017072;28;20519;-66
2022/06/23 14:33:15;;;;;;;3.90;3.70;;;31.30;93.60;;;;;;5020909;28;20614;-66
2022/06/23 14:36:09;;;;;;;4.30;4.00;;;31.30;93.60;;;;;;5019234;28;20523;-66
2022/06/23 14:39:03;;;;;;;4.10;3.83;;;31.30;94.80;;;;;;5022227;28;20452;-66
2022/06/23 14:42:10;;;;;;;4.17;3.87;;;31.40;93.90;;;;;;5015832;28;20904;-67
2022/06/23 14:45:27;;;;;;;3.67;3.47;;;31.50;92.90;;;;;;5016893;28;21045;-67
2022/06/23 14:48:43;;;;;;;4.20;3.90;;;31.50;91.40;;;;;;5020043;28;20569;-68
2022/06/23 14:51:39;;;;;;;3.90;3.70;;;31.60;93.70;;;;;;5018465;28;20447;-66
2022/06/23 14:54:34;;;;;;;5.23;3.90;;;31.60;91.10;;;;;;5013861;28;21136;-67
2022/06/23 14:57:44;;;;;;;3.50;3.20;;;31.60;92.90;;;;;;5011538;28;20550;-67
2022/06/23 15:00:48;;;;;;;3.77;3.53;;;31.70;91.40;;;;;;5012344;28;20562;-67
2022/06/23 15:03:46;;;;;;;4.07;3.87;;;31.80;92.80;;;;;;5014622;28;20463;-66
2022/06/23 15:06:45;;;;;;;5.10;3.50;;;32.00;92.70;;;;;;5016005;28;20565;-67
2022/06/23 15:09:47;;;;;;;4.07;3.77;;;32.00;91.00;;;;;;5017090;28;20483;-66
2022/06/23 15:12:41;;;;;;;4.43;4.03;;;32.10;90.80;;;;;;5012244;28;20481;-66
2022/06/23 15:15:38;;;;;;;3.40;3.20;;;32.10;91.70;;;;;;5012716;28;20479;-67
2022/06/23 15:18:30;;;;;;;3.57;3.33;;;32.10;90.60;;;;;;5016752;28;20452;-69
2022/06/23 15:24:34;;;;;;;3.63;3.10;;;32.20;90.70;;;;;;4985224;28;20916;-69
2022/06/23 15:27:31;;;;;;;3.37;3.10;;;32.20;88.90;;;;;;5016541;28;20494;-68
2022/06/23 15:30:24;;;;;;;3.77;3.57;;;32.20;87.50;;;;;;5008110;28;20479;-66
2022/06/23 15:33:24;;;;;;;3.43;3.23;;;32.10;88.20;;;;;;5012004;28;21042;-66
2022/06/23 15:36:22;;;;;;;3.60;3.40;;;32.10;85.70;;;;;;5011108;28;21039;-66
2022/06/23 15:39:17;;;;;;;3.80;3.60;;;32.10;86.20;;;;;;5011983;28;20481;-66
2022/06/23 15:42:12;;;;;;;3.77;3.47;;;32.10;85.80;;;;;;5012782;28;20987;-67
2022/06/23 15:45:09;;;;;;;3.13;2.93;;;32.10;85.40;;;;;;5018536;28;20525;-67
2022/06/23 15:48:06;;;;;;;3.57;3.33;;;32.20;84.30;;;;;;5018635;28;20514;-67
2022/06/23 15:51:00;;;;;;;3.40;3.20;;;32.00;84.60;;;;;;5019194;28;20458;-67
2022/06/23 15:53:59;;;;;;;3.97;3.63;;;32.00;85.10;;;;;;5018756;28;20475;-67
2022/06/23 15:56:55;;;;;;;4.30;4.00;;;32.00;84.50;;;;;;5017843;28;20449;-66
2022/06/23 15:59:51;;;;;;;4.43;4.03;;;32.10;84.90;;;;;;5017106;28;20943;-67
2022/06/23 16:02:54;;;;;;;3.37;3.17;;;32.10;84.60;;;;;;5024014;28;20478;-67
2022/06/23 16:05:56;;;;;;;4.30;3.90;;;32.10;87.10;;;;;;5018423;28;20565;-67
2022/06/23 16:08:50;;;;;;;4.30;3.90;;;32.20;88.20;;;;;;5015607;28;21309;-68
2022/06/23 16:11:44;;;;;;;6.67;4.33;;;32.20;88.00;;;;;;5013070;28;20560;-68
2022/06/23 16:14:46;;;;;;;4.20;3.80;;;32.30;86.50;;;;;;5012417;28;20562;-68
2022/06/23 16:17:43;;;;;;;3.80;3.20;;;32.20;84.40;;;;;;5011629;28;20459;-69
2022/06/23 16:20:41;;;;;;;4.20;3.83;;;32.10;82.20;;;;;;5013852;28;21347;-68
2022/06/23 16:23:40;;;;;;;3.80;3.60;;;32.00;83.70;;;;;;5012277;28;20494;-68
2022/06/23 16:26:33;;;;;;;3.67;3.43;;;32.00;85.70;;;;;;5006523;28;20559;-68
2022/06/23 16:29:25;;;;;;;3.90;3.70;;;31.90;85.10;;;;;;5015189;28;20464;-68
2022/06/23 16:32:18;;;;;;;4.03;3.70;;;32.00;85.20;;;;;;5010293;28;20826;-68
2022/06/23 16:35:12;;;;;;;3.83;3.60;;;31.90;82.60;;;;;;5012201;28;20495;-69
2022/06/23 16:38:07;;;;;;;3.50;3.30;;;31.80;84.00;;;;;;5012953;28;20961;-69
2022/06/23 16:41:02;;;;;;;4.33;3.97;;;31.80;85.80;;;;;;5013367;28;20467;-68